sensor_id;sensor_type;location;lat;lon;timestamp;P1;durP1;ratioP1;P2;durP2;ratioP2
10896;SDS011;5501;51.176;6.470;2024-03-02T00:01:56;1.23;;;0.80;;
10896;SDS011;5501;51.176;6.470;2024-03-02T00:06:58;2.70;;;0.90;;
10896;SDS011;5501;51.176;6.470;2024-03-02T00:12:00;2.17;;;0.47;;
10896;SDS011;5501;51.176;6.470;2024-03-02T00:17:01;0.90;;;0.60;;
10896;SDS011;5501;51.176;6.470;2024-03-02T00:22:03;2.35;;;1.00;;
10896;SDS011;5501;51.176;6.470;2024-03-02T00:27:05;0.65;;;0.60;;
10896;SDS011;5501;51.176;6.470;2024-03-02T00:32:12;0.68;;;0.55;;
10896;SDS011;5501;51.176;6.470;2024-03-02T00:37:17;1.80;;;0.73;;
10896;SDS011;5501;51.176;6.470;2024-03-02T00:42:19;0.77;;;0.70;;
10896;SDS011;5501;51.176;6.470;2024-03-02T00:47:21;1.10;;;0.75;;
10896;SDS011;5501;51.176;6.470;2024-03-02T00:52:22;0.90;;;0.68;;
10896;SDS011;5501;51.176;6.470;2024-03-02T00:57:25;1.58;;;0.60;;
10896;SDS011;5501;51.176;6.470;2024-03-02T01:02:28;0.68;;;0.68;;
10896;SDS011;5501;51.176;6.470;2024-03-02T01:07:30;0.75;;;0.65;;
10896;SDS011;5501;51.176;6.470;2024-03-02T01:12:31;0.68;;;0.63;;
10896;SDS011;5501;51.176;6.470;2024-03-02T01:17:33;2.63;;;0.70;;
10896;SDS011;5501;51.176;6.470;2024-03-02T01:22:35;1.42;;;0.70;;
10896;SDS011;5501;51.176;6.470;2024-03-02T01:27:36;1.20;;;0.57;;
10896;SDS011;5501;51.176;6.470;2024-03-02T01:32:38;0.93;;;0.70;;
10896;SDS011;5501;51.176;6.470;2024-03-02T01:37:40;2.22;;;1.13;;
10896;SDS011;5501;51.176;6.470;2024-03-02T01:42:42;1.10;;;0.93;;
10896;SDS011;5501;51.176;6.470;2024-03-02T01:47:44;0.90;;;0.65;;
10896;SDS011;5501;51.176;6.470;2024-03-02T01:52:46;1.40;;;0.60;;
10896;SDS011;5501;51.176;6.470;2024-03-02T01:57:48;0.50;;;0.50;;
10896;SDS011;5501;51.176;6.470;2024-03-02T02:02:52;1.17;;;0.60;;
10896;SDS011;5501;51.176;6.470;2024-03-02T02:07:54;0.40;;;0.40;;
10896;SDS011;5501;51.176;6.470;2024-03-02T02:12:56;3.33;;;1.13;;
10896;SDS011;5501;51.176;6.470;2024-03-02T02:17:58;2.22;;;0.63;;
10896;SDS011;5501;51.176;6.470;2024-03-02T02:23:01;0.45;;;0.45;;
10896;SDS011;5501;51.176;6.470;2024-03-02T02:28:04;0.95;;;0.63;;
10896;SDS011;5501;51.176;6.470;2024-03-02T02:33:05;1.48;;;0.60;;
10896;SDS011;5501;51.176;6.470;2024-03-02T02:38:07;1.58;;;0.60;;
10896;SDS011;5501;51.176;6.470;2024-03-02T02:43:08;0.50;;;0.47;;
10896;SDS011;5501;51.176;6.470;2024-03-02T02:48:10;0.73;;;0.38;;
10896;SDS011;5501;51.176;6.470;2024-03-02T02:53:11;3.20;;;0.80;;
10896;SDS011;5501;51.176;6.470;2024-03-02T02:58:13;1.67;;;0.52;;
10896;SDS011;5501;51.176;6.470;2024-03-02T03:03:15;0.85;;;0.30;;
10896;SDS011;5501;51.176;6.470;2024-03-02T03:08:17;0.15;;;0.15;;
10896;SDS011;5501;51.176;6.470;2024-03-02T03:13:18;0.10;;;0.10;;
10896;SDS011;5501;51.176;6.470;2024-03-02T03:18:20;0.20;;;0.20;;
10896;SDS011;5501;51.176;6.470;2024-03-02T03:23:21;0.20;;;0.20;;
10896;SDS011;5501;51.176;6.470;2024-03-02T03:28:23;0.03;;;0.03;;
10896;SDS011;5501;51.176;6.470;2024-03-02T03:33:24;0.20;;;0.20;;
10896;SDS011;5501;51.176;6.470;2024-03-02T03:38:26;0.10;;;0.10;;
10896;SDS011;5501;51.176;6.470;2024-03-02T03:43:27;0.30;;;0.30;;
10896;SDS011;5501;51.176;6.470;2024-03-02T03:48:29;0.30;;;0.30;;
10896;SDS011;5501;51.176;6.470;2024-03-02T03:53:32;0.30;;;0.22;;
10896;SDS011;5501;51.176;6.470;2024-03-02T03:58:33;0.10;;;0.10;;
10896;SDS011;5501;51.176;6.470;2024-03-02T04:03:35;1.17;;;0.28;;
10896;SDS011;5501;51.176;6.470;2024-03-02T04:08:36;0.20;;;0.20;;
10896;SDS011;5501;51.176;6.470;2024-03-02T04:13:38;0.75;;;0.40;;
10896;SDS011;5501;51.176;6.470;2024-03-02T04:18:39;0.32;;;0.32;;
10896;SDS011;5501;51.176;6.470;2024-03-02T04:23:41;0.43;;;0.10;;
10896;SDS011;5501;51.176;6.470;2024-03-02T04:28:42;0.20;;;0.20;;
10896;SDS011;5501;51.176;6.470;2024-03-02T04:33:44;0.47;;;0.43;;
10896;SDS011;5501;51.176;6.470;2024-03-02T04:38:45;0.17;;;0.17;;
10896;SDS011;5501;51.176;6.470;2024-03-02T04:43:47;0.38;;;0.38;;
10896;SDS011;5501;51.176;6.470;2024-03-02T04:48:52;0.28;;;0.25;;
10896;SDS011;5501;51.176;6.470;2024-03-02T04:53:57;0.30;;;0.30;;
10896;SDS011;5501;51.176;6.470;2024-03-02T04:58:58;0.22;;;0.22;;
10896;SDS011;5501;51.176;6.470;2024-03-02T05:04:00;0.30;;;0.30;;
10896;SDS011;5501;51.176;6.470;2024-03-02T05:09:01;0.38;;;0.38;;
10896;SDS011;5501;51.176;6.470;2024-03-02T05:14:06;0.40;;;0.40;;
10896;SDS011;5501;51.176;6.470;2024-03-02T05:19:08;0.43;;;0.43;;
10896;SDS011;5501;51.176;6.470;2024-03-02T05:24:09;4.05;;;0.50;;
10896;SDS011;5501;51.176;6.470;2024-03-02T05:29:11;0.65;;;0.57;;
10896;SDS011;5501;51.176;6.470;2024-03-02T05:34:12;1.38;;;0.50;;
10896;SDS011;5501;51.176;6.470;2024-03-02T05:39:14;2.10;;;0.60;;
10896;SDS011;5501;51.176;6.470;2024-03-02T05:44:15;0.60;;;0.60;;
10896;SDS011;5501;51.176;6.470;2024-03-02T05:49:16;0.63;;;0.55;;
10896;SDS011;5501;51.176;6.470;2024-03-02T05:54:18;1.80;;;0.93;;
10896;SDS011;5501;51.176;6.470;2024-03-02T05:59:19;6.15;;;1.00;;
10896;SDS011;5501;51.176;6.470;2024-03-02T06:04:21;1.77;;;0.70;;
10896;SDS011;5501;51.176;6.470;2024-03-02T06:09:22;0.60;;;0.60;;
10896;SDS011;5501;51.176;6.470;2024-03-02T06:14:25;0.80;;;0.80;;
10896;SDS011;5501;51.176;6.470;2024-03-02T06:19:27;3.00;;;0.68;;
10896;SDS011;5501;51.176;6.470;2024-03-02T06:24:28;1.55;;;1.08;;
10896;SDS011;5501;51.176;6.470;2024-03-02T06:29:32;2.15;;;0.63;;
10896;SDS011;5501;51.176;6.470;2024-03-02T06:34:34;1.38;;;0.88;;
10896;SDS011;5501;51.176;6.470;2024-03-02T06:39:35;1.52;;;0.85;;
10896;SDS011;5501;51.176;6.470;2024-03-02T06:44:37;0.80;;;0.57;;
10896;SDS011;5501;51.176;6.470;2024-03-02T06:49:39;0.93;;;0.60;;
10896;SDS011;5501;51.176;6.470;2024-03-02T06:54:40;1.10;;;1.00;;
10896;SDS011;5501;51.176;6.470;2024-03-02T06:59:42;1.20;;;1.02;;
10896;SDS011;5501;51.176;6.470;2024-03-02T07:04:43;4.03;;;0.98;;
10896;SDS011;5501;51.176;6.470;2024-03-02T07:09:46;0.60;;;0.60;;
10896;SDS011;5501;51.176;6.470;2024-03-02T07:14:48;1.15;;;0.80;;
10896;SDS011;5501;51.176;6.470;2024-03-02T07:20:05;0.82;;;0.68;;
10896;SDS011;5501;51.176;6.470;2024-03-02T07:25:08;1.75;;;0.82;;
10896;SDS011;5501;51.176;6.470;2024-03-02T07:30:29;0.63;;;0.57;;
10896;SDS011;5501;51.176;6.470;2024-03-02T07:35:34;2.00;;;0.88;;
10896;SDS011;5501;51.176;6.470;2024-03-02T07:40:35;1.25;;;0.70;;
10896;SDS011;5501;51.176;6.470;2024-03-02T07:45:37;2.80;;;0.50;;
10896;SDS011;5501;51.176;6.470;2024-03-02T07:50:38;0.77;;;0.55;;
10896;SDS011;5501;51.176;6.470;2024-03-02T07:55:41;0.57;;;0.40;;
10896;SDS011;5501;51.176;6.470;2024-03-02T08:00:43;3.58;;;0.65;;
10896;SDS011;5501;51.176;6.470;2024-03-02T08:05:45;0.60;;;0.40;;
10896;SDS011;5501;51.176;6.470;2024-03-02T08:10:47;0.98;;;0.60;;
10896;SDS011;5501;51.176;6.470;2024-03-02T08:15:50;0.57;;;0.50;;
10896;SDS011;5501;51.176;6.470;2024-03-02T08:20:51;4.65;;;0.60;;
10896;SDS011;5501;51.176;6.470;2024-03-02T08:25:53;1.10;;;0.50;;
10896;SDS011;5501;51.176;6.470;2024-03-02T08:30:54;1.33;;;0.88;;
10896;SDS011;5501;51.176;6.470;2024-03-02T08:35:56;1.80;;;0.80;;
10896;SDS011;5501;51.176;6.470;2024-03-02T08:40:58;0.95;;;0.88;;
10896;SDS011;5501;51.176;6.470;2024-03-02T08:45:59;1.50;;;0.60;;
10896;SDS011;5501;51.176;6.470;2024-03-02T08:51:01;1.85;;;0.65;;
10896;SDS011;5501;51.176;6.470;2024-03-02T08:56:05;1.15;;;1.02;;
10896;SDS011;5501;51.176;6.470;2024-03-02T09:01:07;1.73;;;1.00;;
10896;SDS011;5501;51.176;6.470;2024-03-02T09:06:09;1.05;;;0.60;;
10896;SDS011;5501;51.176;6.470;2024-03-02T09:11:11;0.63;;;0.63;;
10896;SDS011;5501;51.176;6.470;2024-03-02T09:16:13;2.97;;;0.85;;
10896;SDS011;5501;51.176;6.470;2024-03-02T09:21:14;1.65;;;0.80;;
10896;SDS011;5501;51.176;6.470;2024-03-02T09:26:16;0.88;;;0.70;;
10896;SDS011;5501;51.176;6.470;2024-03-02T09:31:18;4.57;;;1.02;;
10896;SDS011;5501;51.176;6.470;2024-03-02T09:36:19;1.27;;;0.65;;
10896;SDS011;5501;51.176;6.470;2024-03-02T09:41:23;2.22;;;0.70;;
10896;SDS011;5501;51.176;6.470;2024-03-02T09:46:25;0.75;;;0.45;;
10896;SDS011;5501;51.176;6.470;2024-03-02T09:51:27;1.60;;;0.95;;
10896;SDS011;5501;51.176;6.470;2024-03-02T09:56:28;4.88;;;0.60;;
10896;SDS011;5501;51.176;6.470;2024-03-02T10:01:30;0.30;;;0.30;;
10896;SDS011;5501;51.176;6.470;2024-03-02T10:06:32;2.42;;;0.77;;
10896;SDS011;5501;51.176;6.470;2024-03-02T10:11:34;0.55;;;0.55;;
10896;SDS011;5501;51.176;6.470;2024-03-02T10:16:42;2.53;;;0.60;;
10896;SDS011;5501;51.176;6.470;2024-03-02T10:21:49;0.80;;;0.63;;
10896;SDS011;5501;51.176;6.470;2024-03-02T10:26:54;2.47;;;0.65;;
10896;SDS011;5501;51.176;6.470;2024-03-02T10:31:57;3.70;;;0.77;;
10896;SDS011;5501;51.176;6.470;2024-03-02T10:37:00;6.35;;;0.80;;
10896;SDS011;5501;51.176;6.470;2024-03-02T10:42:05;0.47;;;0.47;;
10896;SDS011;5501;51.176;6.470;2024-03-02T10:47:07;0.77;;;0.52;;
10896;SDS011;5501;51.176;6.470;2024-03-02T10:52:10;0.57;;;0.40;;
10896;SDS011;5501;51.176;6.470;2024-03-02T10:57:11;0.85;;;0.60;;
10896;SDS011;5501;51.176;6.470;2024-03-02T11:02:17;0.57;;;0.50;;
10896;SDS011;5501;51.176;6.470;2024-03-02T11:07:23;0.32;;;0.30;;
10896;SDS011;5501;51.176;6.470;2024-03-02T11:12:28;1.48;;;0.73;;
10896;SDS011;5501;51.176;6.470;2024-03-02T11:17:31;0.98;;;0.93;;
10896;SDS011;5501;51.176;6.470;2024-03-02T11:22:32;0.60;;;0.40;;
10896;SDS011;5501;51.176;6.470;2024-03-02T11:28:19;3.15;;;0.57;;
10896;SDS011;5501;51.176;6.470;2024-03-02T11:33:05;0.80;;;0.40;;
10896;SDS011;5501;51.176;6.470;2024-03-02T11:38:13;0.22;;;0.22;;
10896;SDS011;5501;51.176;6.470;2024-03-02T11:43:15;2.15;;;0.50;;
10896;SDS011;5501;51.176;6.470;2024-03-02T11:48:17;0.75;;;0.40;;
10896;SDS011;5501;51.176;6.470;2024-03-02T11:53:22;0.30;;;0.30;;
10896;SDS011;5501;51.176;6.470;2024-03-02T11:58:24;2.67;;;0.52;;
10896;SDS011;5501;51.176;6.470;2024-03-02T12:03:26;0.95;;;0.73;;
10896;SDS011;5501;51.176;6.470;2024-03-02T12:08:28;0.20;;;0.20;;
10896;SDS011;5501;51.176;6.470;2024-03-02T12:13:29;0.30;;;0.25;;
10896;SDS011;5501;51.176;6.470;2024-03-02T12:18:31;1.85;;;0.70;;
10896;SDS011;5501;51.176;6.470;2024-03-02T12:23:32;0.30;;;0.30;;
10896;SDS011;5501;51.176;6.470;2024-03-02T12:28:34;1.25;;;0.50;;
10896;SDS011;5501;51.176;6.470;2024-03-02T12:33:36;2.60;;;0.90;;
10896;SDS011;5501;51.176;6.470;2024-03-02T12:38:37;2.10;;;0.65;;
10896;SDS011;5501;51.176;6.470;2024-03-02T12:43:44;0.52;;;0.50;;
10896;SDS011;5501;51.176;6.470;2024-03-02T12:48:46;1.60;;;0.40;;
10896;SDS011;5501;51.176;6.470;2024-03-02T12:53:57;3.58;;;0.60;;
10896;SDS011;5501;51.176;6.470;2024-03-02T12:58:59;2.00;;;0.65;;
10896;SDS011;5501;51.176;6.470;2024-03-02T13:04:00;0.98;;;0.50;;
10896;SDS011;5501;51.176;6.470;2024-03-02T13:09:02;0.82;;;0.70;;
10896;SDS011;5501;51.176;6.470;2024-03-02T13:14:04;3.28;;;0.70;;
10896;SDS011;5501;51.176;6.470;2024-03-02T13:19:09;1.05;;;0.65;;
10896;SDS011;5501;51.176;6.470;2024-03-02T13:24:12;0.57;;;0.57;;
10896;SDS011;5501;51.176;6.470;2024-03-02T13:29:13;0.60;;;0.60;;
10896;SDS011;5501;51.176;6.470;2024-03-02T13:34:15;0.70;;;0.70;;
10896;SDS011;5501;51.176;6.470;2024-03-02T13:39:16;1.05;;;0.70;;
10896;SDS011;5501;51.176;6.470;2024-03-02T13:44:18;0.82;;;0.82;;
10896;SDS011;5501;51.176;6.470;2024-03-02T13:49:20;4.50;;;0.80;;
10896;SDS011;5501;51.176;6.470;2024-03-02T13:54:22;0.50;;;0.50;;
10896;SDS011;5501;51.176;6.470;2024-03-02T13:59:23;0.50;;;0.50;;
10896;SDS011;5501;51.176;6.470;2024-03-02T14:04:25;0.63;;;0.63;;
10896;SDS011;5501;51.176;6.470;2024-03-02T14:09:26;2.22;;;0.63;;
10896;SDS011;5501;51.176;6.470;2024-03-02T14:14:28;1.00;;;0.70;;
10896;SDS011;5501;51.176;6.470;2024-03-02T14:19:30;1.45;;;0.85;;
10896;SDS011;5501;51.176;6.470;2024-03-02T14:24:31;1.33;;;1.00;;
10896;SDS011;5501;51.176;6.470;2024-03-02T14:29:33;1.08;;;0.77;;
10896;SDS011;5501;51.176;6.470;2024-03-02T14:34:37;0.98;;;0.93;;
10896;SDS011;5501;51.176;6.470;2024-03-02T14:39:40;0.65;;;0.65;;
10896;SDS011;5501;51.176;6.470;2024-03-02T14:44:42;0.70;;;0.70;;
10896;SDS011;5501;51.176;6.470;2024-03-02T14:49:44;1.15;;;0.73;;
10896;SDS011;5501;51.176;6.470;2024-03-02T14:54:45;1.33;;;0.77;;
10896;SDS011;5501;51.176;6.470;2024-03-02T14:59:48;0.63;;;0.50;;
10896;SDS011;5501;51.176;6.470;2024-03-02T15:04:49;1.67;;;0.50;;
10896;SDS011;5501;51.176;6.470;2024-03-02T15:09:52;0.50;;;0.50;;
10896;SDS011;5501;51.176;6.470;2024-03-02T15:14:53;1.25;;;1.08;;
10896;SDS011;5501;51.176;6.470;2024-03-02T15:19:55;6.07;;;1.60;;
10896;SDS011;5501;51.176;6.470;2024-03-02T15:24:56;3.45;;;1.40;;
10896;SDS011;5501;51.176;6.470;2024-03-02T15:29:58;0.80;;;0.60;;
10896;SDS011;5501;51.176;6.470;2024-03-02T15:35:00;0.77;;;0.73;;
10896;SDS011;5501;51.176;6.470;2024-03-02T15:40:01;0.77;;;0.63;;
10896;SDS011;5501;51.176;6.470;2024-03-02T15:45:07;1.45;;;0.90;;
10896;SDS011;5501;51.176;6.470;2024-03-02T15:50:09;1.95;;;0.60;;
10896;SDS011;5501;51.176;6.470;2024-03-02T15:55:11;0.73;;;0.65;;
10896;SDS011;5501;51.176;6.470;2024-03-02T16:00:13;1.42;;;0.80;;
10896;SDS011;5501;51.176;6.470;2024-03-02T16:05:15;1.15;;;0.60;;
10896;SDS011;5501;51.176;6.470;2024-03-02T16:10:18;1.23;;;0.75;;
10896;SDS011;5501;51.176;6.470;2024-03-02T16:15:19;2.05;;;0.90;;
10896;SDS011;5501;51.176;6.470;2024-03-02T16:20:21;3.75;;;0.88;;
10896;SDS011;5501;51.176;6.470;2024-03-02T16:25:22;1.33;;;0.88;;
10896;SDS011;5501;51.176;6.470;2024-03-02T16:30:26;1.23;;;0.90;;
10896;SDS011;5501;51.176;6.470;2024-03-02T16:35:27;1.08;;;0.68;;
10896;SDS011;5501;51.176;6.470;2024-03-02T16:40:29;1.42;;;0.85;;
10896;SDS011;5501;51.176;6.470;2024-03-02T16:45:32;1.20;;;0.90;;
10896;SDS011;5501;51.176;6.470;2024-03-02T16:50:34;0.70;;;0.70;;
10896;SDS011;5501;51.176;6.470;2024-03-02T16:55:36;1.45;;;0.73;;
10896;SDS011;5501;51.176;6.470;2024-03-02T17:00:37;0.93;;;0.82;;
10896;SDS011;5501;51.176;6.470;2024-03-02T17:05:39;1.00;;;0.77;;
10896;SDS011;5501;51.176;6.470;2024-03-02T17:10:40;1.20;;;0.82;;
10896;SDS011;5501;51.176;6.470;2024-03-02T17:15:42;1.05;;;1.00;;
10896;SDS011;5501;51.176;6.470;2024-03-02T17:20:44;1.58;;;0.90;;
10896;SDS011;5501;51.176;6.470;2024-03-02T17:25:45;1.67;;;0.98;;
10896;SDS011;5501;51.176;6.470;2024-03-02T17:30:46;3.30;;;1.42;;
10896;SDS011;5501;51.176;6.470;2024-03-02T17:35:48;1.63;;;1.20;;
10896;SDS011;5501;51.176;6.470;2024-03-02T17:40:51;1.85;;;1.15;;
10896;SDS011;5501;51.176;6.470;2024-03-02T17:45:52;1.60;;;1.02;;
10896;SDS011;5501;51.176;6.470;2024-03-02T17:50:55;1.20;;;1.10;;
10896;SDS011;5501;51.176;6.470;2024-03-02T17:55:56;2.58;;;1.30;;
10896;SDS011;5501;51.176;6.470;2024-03-02T18:00:58;2.20;;;1.13;;
10896;SDS011;5501;51.176;6.470;2024-03-02T18:06:02;1.40;;;1.10;;
10896;SDS011;5501;51.176;6.470;2024-03-02T18:11:04;3.00;;;1.33;;
10896;SDS011;5501;51.176;6.470;2024-03-02T18:16:07;1.00;;;0.90;;
10896;SDS011;5501;51.176;6.470;2024-03-02T18:21:09;2.42;;;0.88;;
10896;SDS011;5501;51.176;6.470;2024-03-02T18:26:10;2.10;;;0.75;;
10896;SDS011;5501;51.176;6.470;2024-03-02T18:31:12;1.70;;;1.30;;
10896;SDS011;5501;51.176;6.470;2024-03-02T18:36:13;2.22;;;1.83;;
10896;SDS011;5501;51.176;6.470;2024-03-02T18:41:15;2.05;;;1.30;;
10896;SDS011;5501;51.176;6.470;2024-03-02T18:46:16;1.98;;;1.42;;
10896;SDS011;5501;51.176;6.470;2024-03-02T18:51:20;1.40;;;1.20;;
10896;SDS011;5501;51.176;6.470;2024-03-02T18:56:23;1.73;;;0.90;;
10896;SDS011;5501;51.176;6.470;2024-03-02T19:01:24;1.27;;;0.93;;
10896;SDS011;5501;51.176;6.470;2024-03-02T19:06:26;1.60;;;1.10;;
10896;SDS011;5501;51.176;6.470;2024-03-02T19:11:28;2.45;;;1.35;;
10896;SDS011;5501;51.176;6.470;2024-03-02T19:16:29;1.52;;;0.90;;
10896;SDS011;5501;51.176;6.470;2024-03-02T19:21:31;1.38;;;0.90;;
10896;SDS011;5501;51.176;6.470;2024-03-02T19:26:33;1.58;;;1.40;;
10896;SDS011;5501;51.176;6.470;2024-03-02T19:31:34;1.73;;;1.00;;
10896;SDS011;5501;51.176;6.470;2024-03-02T19:36:37;1.48;;;0.85;;
10896;SDS011;5501;51.176;6.470;2024-03-02T19:41:38;1.42;;;1.20;;
10896;SDS011;5501;51.176;6.470;2024-03-02T19:46:40;2.05;;;1.10;;
10896;SDS011;5501;51.176;6.470;2024-03-02T19:51:41;1.55;;;1.13;;
10896;SDS011;5501;51.176;6.470;2024-03-02T19:56:43;1.27;;;1.10;;
10896;SDS011;5501;51.176;6.470;2024-03-02T20:01:46;2.15;;;1.10;;
10896;SDS011;5501;51.176;6.470;2024-03-02T20:06:47;2.50;;;1.00;;
10896;SDS011;5501;51.176;6.470;2024-03-02T20:11:49;1.52;;;1.27;;
10896;SDS011;5501;51.176;6.470;2024-03-02T20:16:51;1.00;;;0.90;;
10896;SDS011;5501;51.176;6.470;2024-03-02T20:21:52;1.92;;;1.35;;
10896;SDS011;5501;51.176;6.470;2024-03-02T20:26:53;2.67;;;1.40;;
10896;SDS011;5501;51.176;6.470;2024-03-02T20:31:56;3.70;;;1.60;;
10896;SDS011;5501;51.176;6.470;2024-03-02T20:36:59;2.90;;;1.95;;
10896;SDS011;5501;51.176;6.470;2024-03-02T20:42:02;2.97;;;1.90;;
10896;SDS011;5501;51.176;6.470;2024-03-02T20:47:04;2.97;;;1.73;;
10896;SDS011;5501;51.176;6.470;2024-03-02T20:52:05;2.17;;;1.70;;
10896;SDS011;5501;51.176;6.470;2024-03-02T20:57:07;2.65;;;1.75;;
10896;SDS011;5501;51.176;6.470;2024-03-02T21:02:08;2.40;;;1.42;;
10896;SDS011;5501;51.176;6.470;2024-03-02T21:07:10;2.83;;;1.70;;
10896;SDS011;5501;51.176;6.470;2024-03-02T21:12:11;2.35;;;1.70;;
10896;SDS011;5501;51.176;6.470;2024-03-02T21:17:13;2.97;;;1.83;;
10896;SDS011;5501;51.176;6.470;2024-03-02T21:22:15;2.53;;;1.75;;
10896;SDS011;5501;51.176;6.470;2024-03-02T21:27:16;1.60;;;1.50;;
10896;SDS011;5501;51.176;6.470;2024-03-02T21:32:21;2.10;;;1.50;;
10896;SDS011;5501;51.176;6.470;2024-03-02T21:37:22;2.67;;;1.73;;
10896;SDS011;5501;51.176;6.470;2024-03-02T21:42:24;3.10;;;1.67;;
10896;SDS011;5501;51.176;6.470;2024-03-02T21:47:25;4.10;;;1.70;;
10896;SDS011;5501;51.176;6.470;2024-03-02T21:52:27;2.55;;;1.80;;
10896;SDS011;5501;51.176;6.470;2024-03-02T21:57:28;1.48;;;1.08;;
10896;SDS011;5501;51.176;6.470;2024-03-02T22:02:30;1.48;;;1.17;;
10896;SDS011;5501;51.176;6.470;2024-03-02T22:07:31;1.98;;;1.63;;
10896;SDS011;5501;51.176;6.470;2024-03-02T22:12:33;5.55;;;1.88;;
10896;SDS011;5501;51.176;6.470;2024-03-02T22:17:34;2.15;;;1.65;;
10896;SDS011;5501;51.176;6.470;2024-03-02T22:22:36;1.77;;;1.35;;
10896;SDS011;5501;51.176;6.470;2024-03-02T22:27:40;2.75;;;2.15;;
10896;SDS011;5501;51.176;6.470;2024-03-02T22:32:43;6.57;;;2.13;;
10896;SDS011;5501;51.176;6.470;2024-03-02T22:37:46;2.17;;;1.40;;
10896;SDS011;5501;51.176;6.470;2024-03-02T22:42:47;2.15;;;1.70;;
10896;SDS011;5501;51.176;6.470;2024-03-02T22:47:48;2.13;;;1.50;;
10896;SDS011;5501;51.176;6.470;2024-03-02T22:52:51;4.45;;;2.00;;
10896;SDS011;5501;51.176;6.470;2024-03-02T22:57:53;2.70;;;2.08;;
10896;SDS011;5501;51.176;6.470;2024-03-02T23:02:57;3.03;;;2.08;;
10896;SDS011;5501;51.176;6.470;2024-03-02T23:07:59;3.15;;;2.00;;
10896;SDS011;5501;51.176;6.470;2024-03-02T23:13:00;3.75;;;2.33;;
10896;SDS011;5501;51.176;6.470;2024-03-02T23:18:02;3.58;;;1.63;;
10896;SDS011;5501;51.176;6.470;2024-03-02T23:23:04;2.38;;;1.60;;
10896;SDS011;5501;51.176;6.470;2024-03-02T23:28:06;2.13;;;1.90;;
10896;SDS011;5501;51.176;6.470;2024-03-02T23:33:08;2.08;;;1.60;;
10896;SDS011;5501;51.176;6.470;2024-03-02T23:38:09;3.63;;;2.10;;
10896;SDS011;5501;51.176;6.470;2024-03-02T23:43:11;2.83;;;1.98;;
10896;SDS011;5501;51.176;6.470;2024-03-02T23:48:14;4.30;;;1.92;;
10896;SDS011;5501;51.176;6.470;2024-03-02T23:53:16;3.45;;;2.22;;
10896;SDS011;5501;51.176;6.470;2024-03-02T23:58:17;2.83;;;1.73;;
